sensor_id;sensor_type;location;lat;lon;timestamp;P1;durP1;ratioP1;P2;durP2;ratioP2
42864;SDS011;28511;42.680;23.252;2023-05-15T00:01:15;0.52;;;0.52;;
42864;SDS011;28511;42.680;23.252;2023-05-15T00:03:40;1.25;;;1.13;;
42864;SDS011;28511;42.680;23.252;2023-05-15T00:06:05;1.13;;;1.08;;
42864;SDS011;28511;42.680;23.252;2023-05-15T00:08:31;1.33;;;1.23;;
42864;SDS011;28511;42.680;23.252;2023-05-15T00:13:59;1.48;;;1.38;;
42864;SDS011;28511;42.680;23.252;2023-05-15T00:16:24;2.63;;;1.85;;
42864;SDS011;28511;42.680;23.252;2023-05-15T00:18:50;1.45;;;1.35;;
42864;SDS011;28511;42.680;23.252;2023-05-15T00:21:15;1.70;;;1.60;;
42864;SDS011;28511;42.680;23.252;2023-05-15T00:23:41;1.33;;;1.33;;
42864;SDS011;28511;42.680;23.252;2023-05-15T00:26:06;1.73;;;1.63;;
42864;SDS011;28511;42.680;23.252;2023-05-15T00:28:31;2.95;;;1.90;;
42864;SDS011;28511;42.680;23.252;2023-05-15T00:30:57;1.42;;;1.00;;
42864;SDS011;28511;42.680;23.252;2023-05-15T00:33:23;1.90;;;1.00;;
42864;SDS011;28511;42.680;23.252;2023-05-15T00:35:48;1.05;;;1.05;;
42864;SDS011;28511;42.680;23.252;2023-05-15T00:38:13;1.02;;;1.02;;
42864;SDS011;28511;42.680;23.252;2023-05-15T00:40:39;0.67;;;0.67;;
42864;SDS011;28511;42.680;23.252;2023-05-15T00:43:05;1.25;;;1.13;;
42864;SDS011;28511;42.680;23.252;2023-05-15T00:45:30;0.30;;;0.30;;
42864;SDS011;28511;42.680;23.252;2023-05-15T00:47:56;0.75;;;0.70;;
42864;SDS011;28511;42.680;23.252;2023-05-15T00:50:22;1.83;;;1.73;;
42864;SDS011;28511;42.680;23.252;2023-05-15T00:52:47;0.50;;;0.50;;
42864;SDS011;28511;42.680;23.252;2023-05-15T00:55:13;2.70;;;1.52;;
42864;SDS011;28511;42.680;23.252;2023-05-15T00:57:38;1.23;;;0.75;;
42864;SDS011;28511;42.680;23.252;2023-05-15T01:00:05;1.77;;;1.65;;
42864;SDS011;28511;42.680;23.252;2023-05-15T01:02:34;5.18;;;2.13;;
42864;SDS011;28511;42.680;23.252;2023-05-15T01:04:59;2.47;;;1.73;;
42864;SDS011;28511;42.680;23.252;2023-05-15T01:07:25;1.27;;;1.13;;
42864;SDS011;28511;42.680;23.252;2023-05-15T01:09:51;1.23;;;1.23;;
42864;SDS011;28511;42.680;23.252;2023-05-15T01:12:16;1.38;;;1.38;;
42864;SDS011;28511;42.680;23.252;2023-05-15T01:14:42;2.28;;;2.13;;
42864;SDS011;28511;42.680;23.252;2023-05-15T01:17:07;1.42;;;0.95;;
42864;SDS011;28511;42.680;23.252;2023-05-15T01:19:33;1.80;;;1.57;;
42864;SDS011;28511;42.680;23.252;2023-05-15T01:27:35;1.23;;;0.73;;
42864;SDS011;28511;42.680;23.252;2023-05-15T01:35:37;1.15;;;1.05;;
42864;SDS011;28511;42.680;23.252;2023-05-15T01:38:17;0.65;;;0.65;;
42864;SDS011;28511;42.680;23.252;2023-05-15T01:40:43;2.45;;;1.67;;
42864;SDS011;28511;42.680;23.252;2023-05-15T01:43:10;1.63;;;1.52;;
42864;SDS011;28511;42.680;23.252;2023-05-15T01:45:36;2.65;;;1.77;;
42864;SDS011;28511;42.680;23.252;2023-05-15T01:48:02;3.13;;;2.83;;
42864;SDS011;28511;42.680;23.252;2023-05-15T01:50:28;1.50;;;1.40;;
42864;SDS011;28511;42.680;23.252;2023-05-15T01:52:57;2.05;;;1.90;;
42864;SDS011;28511;42.680;23.252;2023-05-15T01:55:22;0.95;;;0.95;;
42864;SDS011;28511;42.680;23.252;2023-05-15T01:57:49;0.88;;;0.88;;
42864;SDS011;28511;42.680;23.252;2023-05-15T02:00:15;1.50;;;1.40;;
42864;SDS011;28511;42.680;23.252;2023-05-15T02:02:41;1.30;;;1.30;;
42864;SDS011;28511;42.680;23.252;2023-05-15T02:05:07;3.83;;;1.88;;
42864;SDS011;28511;42.680;23.252;2023-05-15T02:07:32;1.92;;;1.83;;
42864;SDS011;28511;42.680;23.252;2023-05-15T02:09:58;1.30;;;1.13;;
42864;SDS011;28511;42.680;23.252;2023-05-15T02:12:23;0.82;;;0.70;;
42864;SDS011;28511;42.680;23.252;2023-05-15T02:14:50;1.92;;;1.65;;
42864;SDS011;28511;42.680;23.252;2023-05-15T02:17:16;4.55;;;1.23;;
42864;SDS011;28511;42.680;23.252;2023-05-15T02:19:41;0.90;;;0.90;;
42864;SDS011;28511;42.680;23.252;2023-05-15T02:22:07;3.78;;;2.35;;
42864;SDS011;28511;42.680;23.252;2023-05-15T02:24:32;1.25;;;1.25;;
42864;SDS011;28511;42.680;23.252;2023-05-15T02:37:20;1.73;;;1.60;;
42864;SDS011;28511;42.680;23.252;2023-05-15T02:39:48;1.10;;;1.10;;
42864;SDS011;28511;42.680;23.252;2023-05-15T02:42:17;1.05;;;0.65;;
42864;SDS011;28511;42.680;23.252;2023-05-15T02:44:43;1.48;;;1.40;;
42864;SDS011;28511;42.680;23.252;2023-05-15T02:47:10;2.85;;;1.98;;
42864;SDS011;28511;42.680;23.252;2023-05-15T02:49:35;2.38;;;2.17;;
42864;SDS011;28511;42.680;23.252;2023-05-15T02:52:01;1.77;;;1.67;;
42864;SDS011;28511;42.680;23.252;2023-05-15T02:54:26;3.30;;;3.00;;
42864;SDS011;28511;42.680;23.252;2023-05-15T02:56:52;1.63;;;1.52;;
42864;SDS011;28511;42.680;23.252;2023-05-15T02:59:17;0.75;;;0.75;;
42864;SDS011;28511;42.680;23.252;2023-05-15T03:01:44;1.25;;;1.25;;
42864;SDS011;28511;42.680;23.252;2023-05-15T03:04:10;6.57;;;2.90;;
42864;SDS011;28511;42.680;23.252;2023-05-15T03:06:36;1.83;;;1.23;;
42864;SDS011;28511;42.680;23.252;2023-05-15T03:09:01;2.33;;;2.15;;
42864;SDS011;28511;42.680;23.252;2023-05-15T03:11:26;2.95;;;2.13;;
42864;SDS011;28511;42.680;23.252;2023-05-15T03:13:52;1.63;;;1.52;;
42864;SDS011;28511;42.680;23.252;2023-05-15T03:16:17;1.35;;;1.25;;
42864;SDS011;28511;42.680;23.252;2023-05-15T03:18:42;2.40;;;2.30;;
42864;SDS011;28511;42.680;23.252;2023-05-15T03:21:07;3.00;;;2.55;;
42864;SDS011;28511;42.680;23.252;2023-05-15T03:23:34;4.00;;;2.90;;
42864;SDS011;28511;42.680;23.252;2023-05-15T03:25:59;2.42;;;2.25;;
42864;SDS011;28511;42.680;23.252;2023-05-15T03:28:24;0.77;;;0.77;;
42864;SDS011;28511;42.680;23.252;2023-05-15T03:30:49;1.63;;;1.52;;
42864;SDS011;28511;42.680;23.252;2023-05-15T03:33:15;2.47;;;1.83;;
42864;SDS011;28511;42.680;23.252;2023-05-15T03:35:40;2.33;;;2.20;;
42864;SDS011;28511;42.680;23.252;2023-05-15T03:38:05;2.53;;;2.33;;
42864;SDS011;28511;42.680;23.252;2023-05-15T03:40:31;3.60;;;2.70;;
42864;SDS011;28511;42.680;23.252;2023-05-15T03:42:56;1.80;;;1.70;;
42864;SDS011;28511;42.680;23.252;2023-05-15T03:45:22;1.88;;;1.75;;
42864;SDS011;28511;42.680;23.252;2023-05-15T03:47:47;3.75;;;3.13;;
42864;SDS011;28511;42.680;23.252;2023-05-15T03:50:12;1.08;;;1.00;;
42864;SDS011;28511;42.680;23.252;2023-05-15T03:52:38;2.28;;;1.65;;
42864;SDS011;28511;42.680;23.252;2023-05-15T03:55:03;1.92;;;1.80;;
42864;SDS011;28511;42.680;23.252;2023-05-15T03:57:29;1.95;;;1.85;;
42864;SDS011;28511;42.680;23.252;2023-05-15T03:59:56;0.85;;;0.85;;
42864;SDS011;28511;42.680;23.252;2023-05-15T04:02:21;4.32;;;2.28;;
42864;SDS011;28511;42.680;23.252;2023-05-15T04:04:46;0.93;;;0.93;;
42864;SDS011;28511;42.680;23.252;2023-05-15T04:07:11;2.00;;;1.90;;
42864;SDS011;28511;42.680;23.252;2023-05-15T04:09:37;0.70;;;0.70;;
42864;SDS011;28511;42.680;23.252;2023-05-15T04:12:02;9.85;;;2.85;;
42864;SDS011;28511;42.680;23.252;2023-05-15T04:14:28;0.93;;;0.93;;
42864;SDS011;28511;42.680;23.252;2023-05-15T04:16:53;5.05;;;2.72;;
42864;SDS011;28511;42.680;23.252;2023-05-15T04:19:18;1.33;;;1.27;;
42864;SDS011;28511;42.680;23.252;2023-05-15T04:21:43;2.77;;;2.43;;
42864;SDS011;28511;42.680;23.252;2023-05-15T04:24:09;1.13;;;1.10;;
42864;SDS011;28511;42.680;23.252;2023-05-15T04:26:34;32.73;;;4.57;;
42864;SDS011;28511;42.680;23.252;2023-05-15T04:29:00;2.58;;;2.38;;
42864;SDS011;28511;42.680;23.252;2023-05-15T04:31:25;1.73;;;1.63;;
42864;SDS011;28511;42.680;23.252;2023-05-15T04:33:51;6.93;;;1.90;;
42864;SDS011;28511;42.680;23.252;2023-05-15T04:36:16;3.20;;;2.90;;
42864;SDS011;28511;42.680;23.252;2023-05-15T04:38:42;1.75;;;1.65;;
42864;SDS011;28511;42.680;23.252;2023-05-15T04:41:07;1.67;;;1.57;;
42864;SDS011;28511;42.680;23.252;2023-05-15T04:43:32;2.03;;;1.73;;
42864;SDS011;28511;42.680;23.252;2023-05-15T04:45:57;2.47;;;1.43;;
42864;SDS011;28511;42.680;23.252;2023-05-15T04:48:23;3.28;;;2.50;;
42864;SDS011;28511;42.680;23.252;2023-05-15T04:50:48;0.82;;;0.80;;
42864;SDS011;28511;42.680;23.252;2023-05-15T04:53:13;2.25;;;2.05;;
42864;SDS011;28511;42.680;23.252;2023-05-15T04:55:38;3.65;;;3.00;;
42864;SDS011;28511;42.680;23.252;2023-05-15T04:58:04;6.75;;;4.85;;
42864;SDS011;28511;42.680;23.252;2023-05-15T05:00:29;2.50;;;2.30;;
42864;SDS011;28511;42.680;23.252;2023-05-15T05:02:55;8.13;;;4.35;;
42864;SDS011;28511;42.680;23.252;2023-05-15T05:05:20;3.63;;;3.33;;
42864;SDS011;28511;42.680;23.252;2023-05-15T05:07:45;2.65;;;2.08;;
42864;SDS011;28511;42.680;23.252;2023-05-15T05:10:12;3.97;;;2.45;;
42864;SDS011;28511;42.680;23.252;2023-05-15T05:12:37;4.93;;;3.53;;
42864;SDS011;28511;42.680;23.252;2023-05-15T05:15:03;1.95;;;1.85;;
42864;SDS011;28511;42.680;23.252;2023-05-15T05:17:28;2.35;;;2.15;;
42864;SDS011;28511;42.680;23.252;2023-05-15T05:19:54;3.28;;;3.08;;
42864;SDS011;28511;42.680;23.252;2023-05-15T05:22:20;2.97;;;2.38;;
42864;SDS011;28511;42.680;23.252;2023-05-15T05:24:45;11.02;;;4.05;;
42864;SDS011;28511;42.680;23.252;2023-05-15T05:27:10;4.13;;;2.40;;
42864;SDS011;28511;42.680;23.252;2023-05-15T05:29:35;2.50;;;2.30;;
42864;SDS011;28511;42.680;23.252;2023-05-15T05:32:01;6.43;;;3.50;;
42864;SDS011;28511;42.680;23.252;2023-05-15T05:34:26;2.73;;;2.47;;
42864;SDS011;28511;42.680;23.252;2023-05-15T05:36:52;0.73;;;0.73;;
42864;SDS011;28511;42.680;23.252;2023-05-15T05:39:17;1.88;;;1.77;;
42864;SDS011;28511;42.680;23.252;2023-05-15T05:41:42;1.80;;;1.70;;
42864;SDS011;28511;42.680;23.252;2023-05-15T05:44:08;1.38;;;1.27;;
42864;SDS011;28511;42.680;23.252;2023-05-15T05:46:33;1.95;;;1.85;;
42864;SDS011;28511;42.680;23.252;2023-05-15T05:48:58;2.22;;;2.03;;
42864;SDS011;28511;42.680;23.252;2023-05-15T05:51:23;2.10;;;1.88;;
42864;SDS011;28511;42.680;23.252;2023-05-15T05:53:49;1.17;;;1.13;;
42864;SDS011;28511;42.680;23.252;2023-05-15T05:56:14;3.45;;;3.15;;
42864;SDS011;28511;42.680;23.252;2023-05-15T05:58:39;3.90;;;1.33;;
42864;SDS011;28511;42.680;23.252;2023-05-15T06:01:05;2.33;;;1.48;;
42864;SDS011;28511;42.680;23.252;2023-05-15T06:03:31;3.60;;;2.42;;
42864;SDS011;28511;42.680;23.252;2023-05-15T06:05:56;2.92;;;2.20;;
42864;SDS011;28511;42.680;23.252;2023-05-15T06:08:21;2.03;;;1.93;;
42864;SDS011;28511;42.680;23.252;2023-05-15T06:10:47;4.05;;;2.65;;
42864;SDS011;28511;42.680;23.252;2023-05-15T06:13:12;2.10;;;0.90;;
42864;SDS011;28511;42.680;23.252;2023-05-15T06:15:39;2.00;;;1.88;;
42864;SDS011;28511;42.680;23.252;2023-05-15T06:18:04;1.30;;;1.10;;
42864;SDS011;28511;42.680;23.252;2023-05-15T06:20:30;4.57;;;1.40;;
42864;SDS011;28511;42.680;23.252;2023-05-15T06:22:55;1.70;;;1.45;;
42864;SDS011;28511;42.680;23.252;2023-05-15T06:25:20;1.67;;;1.60;;
42864;SDS011;28511;42.680;23.252;2023-05-15T06:27:46;1.88;;;1.77;;
42864;SDS011;28511;42.680;23.252;2023-05-15T06:30:11;2.65;;;2.45;;
42864;SDS011;28511;42.680;23.252;2023-05-15T06:32:37;5.60;;;3.13;;
42864;SDS011;28511;42.680;23.252;2023-05-15T06:35:02;2.33;;;1.58;;
42864;SDS011;28511;42.680;23.252;2023-05-15T06:37:29;5.55;;;2.65;;
42864;SDS011;28511;42.680;23.252;2023-05-15T06:39:54;1.40;;;1.30;;
42864;SDS011;28511;42.680;23.252;2023-05-15T06:42:20;3.45;;;1.90;;
42864;SDS011;28511;42.680;23.252;2023-05-15T06:44:45;0.75;;;0.75;;
42864;SDS011;28511;42.680;23.252;2023-05-15T06:47:11;1.33;;;1.23;;
42864;SDS011;28511;42.680;23.252;2023-05-15T06:49:36;3.20;;;2.05;;
42864;SDS011;28511;42.680;23.252;2023-05-15T06:52:02;2.85;;;2.25;;
42864;SDS011;28511;42.680;23.252;2023-05-15T06:54:27;6.47;;;3.95;;
42864;SDS011;28511;42.680;23.252;2023-05-15T06:56:52;3.97;;;2.00;;
42864;SDS011;28511;42.680;23.252;2023-05-15T06:59:17;3.33;;;2.37;;
42864;SDS011;28511;42.680;23.252;2023-05-15T07:01:43;3.63;;;2.17;;
42864;SDS011;28511;42.680;23.252;2023-05-15T07:04:08;5.45;;;3.92;;
42864;SDS011;28511;42.680;23.252;2023-05-15T07:06:33;2.60;;;2.23;;
42864;SDS011;28511;42.680;23.252;2023-05-15T07:08:59;8.30;;;3.13;;
42864;SDS011;28511;42.680;23.252;2023-05-15T07:11:24;6.22;;;3.60;;
42864;SDS011;28511;42.680;23.252;2023-05-15T07:13:50;3.42;;;3.00;;
42864;SDS011;28511;42.680;23.252;2023-05-15T07:16:16;5.40;;;3.38;;
42864;SDS011;28511;42.680;23.252;2023-05-15T07:18:41;2.43;;;1.93;;
42864;SDS011;28511;42.680;23.252;2023-05-15T07:21:06;4.43;;;2.77;;
42864;SDS011;28511;42.680;23.252;2023-05-15T07:23:31;2.73;;;2.13;;
42864;SDS011;28511;42.680;23.252;2023-05-15T07:25:57;3.20;;;1.80;;
42864;SDS011;28511;42.680;23.252;2023-05-15T07:28:22;2.30;;;1.67;;
42864;SDS011;28511;42.680;23.252;2023-05-15T07:30:49;5.85;;;2.33;;
42864;SDS011;28511;42.680;23.252;2023-05-15T07:33:15;4.25;;;2.25;;
42864;SDS011;28511;42.680;23.252;2023-05-15T07:35:41;2.95;;;1.95;;
42864;SDS011;28511;42.680;23.252;2023-05-15T07:38:07;2.93;;;2.53;;
42864;SDS011;28511;42.680;23.252;2023-05-15T07:40:32;6.23;;;3.50;;
42864;SDS011;28511;42.680;23.252;2023-05-15T07:42:57;2.78;;;2.17;;
42864;SDS011;28511;42.680;23.252;2023-05-15T07:45:22;3.50;;;2.72;;
42864;SDS011;28511;42.680;23.252;2023-05-15T07:47:48;6.25;;;3.50;;
42864;SDS011;28511;42.680;23.252;2023-05-15T07:50:13;6.03;;;3.13;;
42864;SDS011;28511;42.680;23.252;2023-05-15T07:52:38;4.13;;;3.00;;
42864;SDS011;28511;42.680;23.252;2023-05-15T07:55:04;4.68;;;2.70;;
42864;SDS011;28511;42.680;23.252;2023-05-15T07:57:30;4.78;;;2.95;;
42864;SDS011;28511;42.680;23.252;2023-05-15T07:59:56;3.72;;;3.22;;
42864;SDS011;28511;42.680;23.252;2023-05-15T08:02:21;4.57;;;2.97;;
42864;SDS011;28511;42.680;23.252;2023-05-15T08:04:46;4.33;;;3.30;;
42864;SDS011;28511;42.680;23.252;2023-05-15T08:07:12;4.28;;;2.78;;
42864;SDS011;28511;42.680;23.252;2023-05-15T08:09:37;6.85;;;3.53;;
42864;SDS011;28511;42.680;23.252;2023-05-15T08:12:18;6.72;;;3.88;;
42864;SDS011;28511;42.680;23.252;2023-05-15T08:14:50;6.07;;;3.88;;
42864;SDS011;28511;42.680;23.252;2023-05-15T08:17:16;4.05;;;2.25;;
42864;SDS011;28511;42.680;23.252;2023-05-15T08:19:41;7.68;;;3.08;;
42864;SDS011;28511;42.680;23.252;2023-05-15T08:22:07;5.70;;;3.88;;
42864;SDS011;28511;42.680;23.252;2023-05-15T08:24:32;3.87;;;3.17;;
42864;SDS011;28511;42.680;23.252;2023-05-15T08:26:57;5.90;;;3.80;;
42864;SDS011;28511;42.680;23.252;2023-05-15T08:29:22;4.93;;;3.63;;
42864;SDS011;28511;42.680;23.252;2023-05-15T08:31:48;3.28;;;2.67;;
42864;SDS011;28511;42.680;23.252;2023-05-15T08:34:15;4.60;;;3.88;;
42864;SDS011;28511;42.680;23.252;2023-05-15T08:36:40;5.45;;;3.78;;
42864;SDS011;28511;42.680;23.252;2023-05-15T08:39:05;6.60;;;4.97;;
42864;SDS011;28511;42.680;23.252;2023-05-15T08:41:39;3.78;;;2.72;;
42864;SDS011;28511;42.680;23.252;2023-05-15T08:44:07;9.93;;;6.00;;
42864;SDS011;28511;42.680;23.252;2023-05-15T08:46:33;5.63;;;3.65;;
42864;SDS011;28511;42.680;23.252;2023-05-15T08:48:59;3.72;;;2.83;;
42864;SDS011;28511;42.680;23.252;2023-05-15T08:51:26;5.20;;;3.35;;
42864;SDS011;28511;42.680;23.252;2023-05-15T08:53:52;8.88;;;5.72;;
42864;SDS011;28511;42.680;23.252;2023-05-15T08:56:17;5.85;;;3.45;;
42864;SDS011;28511;42.680;23.252;2023-05-15T08:58:43;7.15;;;5.32;;
42864;SDS011;28511;42.680;23.252;2023-05-15T09:01:09;4.05;;;3.22;;
42864;SDS011;28511;42.680;23.252;2023-05-15T09:03:35;8.52;;;4.45;;
42864;SDS011;28511;42.680;23.252;2023-05-15T09:06:00;7.40;;;4.03;;
42864;SDS011;28511;42.680;23.252;2023-05-15T09:08:26;7.60;;;4.88;;
42864;SDS011;28511;42.680;23.252;2023-05-15T09:10:52;6.90;;;4.68;;
42864;SDS011;28511;42.680;23.252;2023-05-15T09:13:18;14.27;;;5.00;;
42864;SDS011;28511;42.680;23.252;2023-05-15T09:15:44;5.03;;;3.88;;
42864;SDS011;28511;42.680;23.252;2023-05-15T09:18:10;5.63;;;2.92;;
42864;SDS011;28511;42.680;23.252;2023-05-15T09:20:36;10.63;;;4.68;;
42864;SDS011;28511;42.680;23.252;2023-05-15T09:23:02;7.78;;;4.95;;
42864;SDS011;28511;42.680;23.252;2023-05-15T09:27:59;5.03;;;3.13;;
42864;SDS011;28511;42.680;23.252;2023-05-15T09:30:25;6.07;;;3.55;;
42864;SDS011;28511;42.680;23.252;2023-05-15T09:32:50;6.00;;;4.43;;
42864;SDS011;28511;42.680;23.252;2023-05-15T09:35:32;5.47;;;3.33;;
42864;SDS011;28511;42.680;23.252;2023-05-15T09:37:58;4.95;;;3.63;;
42864;SDS011;28511;42.680;23.252;2023-05-15T09:40:25;4.65;;;3.58;;
42864;SDS011;28511;42.680;23.252;2023-05-15T09:42:52;8.85;;;4.13;;
42864;SDS011;28511;42.680;23.252;2023-05-15T09:45:17;6.67;;;3.83;;
42864;SDS011;28511;42.680;23.252;2023-05-15T09:47:43;3.63;;;3.05;;
42864;SDS011;28511;42.680;23.252;2023-05-15T09:50:08;4.00;;;3.22;;
42864;SDS011;28511;42.680;23.252;2023-05-15T09:52:34;7.85;;;3.30;;
42864;SDS011;28511;42.680;23.252;2023-05-15T09:55:00;6.53;;;3.38;;
42864;SDS011;28511;42.680;23.252;2023-05-15T09:57:27;4.90;;;3.70;;
42864;SDS011;28511;42.680;23.252;2023-05-15T09:59:52;4.22;;;3.05;;
42864;SDS011;28511;42.680;23.252;2023-05-15T10:02:28;5.22;;;3.15;;
42864;SDS011;28511;42.680;23.252;2023-05-15T10:04:59;7.28;;;4.43;;
42864;SDS011;28511;42.680;23.252;2023-05-15T10:09:53;7.60;;;3.78;;
42864;SDS011;28511;42.680;23.252;2023-05-15T10:12:18;7.13;;;3.85;;
42864;SDS011;28511;42.680;23.252;2023-05-15T10:14:44;7.32;;;4.55;;
42864;SDS011;28511;42.680;23.252;2023-05-15T10:17:09;6.05;;;2.65;;
42864;SDS011;28511;42.680;23.252;2023-05-15T10:19:35;6.95;;;4.07;;
42864;SDS011;28511;42.680;23.252;2023-05-15T10:22:02;18.80;;;4.13;;
42864;SDS011;28511;42.680;23.252;2023-05-15T10:24:28;6.53;;;3.60;;
42864;SDS011;28511;42.680;23.252;2023-05-15T10:26:54;5.63;;;3.35;;
42864;SDS011;28511;42.680;23.252;2023-05-15T10:29:20;5.95;;;3.72;;
42864;SDS011;28511;42.680;23.252;2023-05-15T10:31:46;4.57;;;3.17;;
42864;SDS011;28511;42.680;23.252;2023-05-15T10:34:12;4.93;;;3.85;;
42864;SDS011;28511;42.680;23.252;2023-05-15T10:36:38;7.68;;;3.80;;
42864;SDS011;28511;42.680;23.252;2023-05-15T10:39:04;5.30;;;2.72;;
42864;SDS011;28511;42.680;23.252;2023-05-15T10:41:34;5.70;;;3.42;;
42864;SDS011;28511;42.680;23.252;2023-05-15T10:44:01;10.20;;;4.47;;
42864;SDS011;28511;42.680;23.252;2023-05-15T10:46:28;4.60;;;2.65;;
42864;SDS011;28511;42.680;23.252;2023-05-15T10:48:54;6.68;;;4.22;;
42864;SDS011;28511;42.680;23.252;2023-05-15T10:51:29;10.30;;;3.22;;
42864;SDS011;28511;42.680;23.252;2023-05-15T10:53:55;3.95;;;2.55;;
42864;SDS011;28511;42.680;23.252;2023-05-15T10:56:31;3.67;;;2.55;;
42864;SDS011;28511;42.680;23.252;2023-05-15T10:58:56;7.10;;;3.53;;
42864;SDS011;28511;42.680;23.252;2023-05-15T11:01:28;5.78;;;3.83;;
42864;SDS011;28511;42.680;23.252;2023-05-15T11:06:31;4.72;;;3.10;;
42864;SDS011;28511;42.680;23.252;2023-05-15T11:11:53;5.80;;;3.50;;
42864;SDS011;28511;42.680;23.252;2023-05-15T11:14:20;4.10;;;3.08;;
42864;SDS011;28511;42.680;23.252;2023-05-15T11:19:24;5.90;;;3.10;;
42864;SDS011;28511;42.680;23.252;2023-05-15T11:21:55;4.45;;;2.25;;
42864;SDS011;28511;42.680;23.252;2023-05-15T11:24:20;4.47;;;2.97;;
42864;SDS011;28511;42.680;23.252;2023-05-15T11:26:49;5.43;;;2.78;;
42864;SDS011;28511;42.680;23.252;2023-05-15T11:29:16;9.68;;;5.50;;
42864;SDS011;28511;42.680;23.252;2023-05-15T11:31:41;7.05;;;3.63;;
42864;SDS011;28511;42.680;23.252;2023-05-15T11:34:07;6.30;;;4.07;;
42864;SDS011;28511;42.680;23.252;2023-05-15T11:36:32;4.55;;;3.75;;
42864;SDS011;28511;42.680;23.252;2023-05-15T11:38:57;4.80;;;3.65;;
42864;SDS011;28511;42.680;23.252;2023-05-15T11:41:23;5.95;;;3.95;;
42864;SDS011;28511;42.680;23.252;2023-05-15T11:43:55;9.63;;;3.15;;
42864;SDS011;28511;42.680;23.252;2023-05-15T11:46:21;9.48;;;4.70;;
42864;SDS011;28511;42.680;23.252;2023-05-15T11:48:46;5.07;;;3.15;;
42864;SDS011;28511;42.680;23.252;2023-05-15T11:51:19;7.32;;;4.85;;
42864;SDS011;28511;42.680;23.252;2023-05-15T11:53:45;5.43;;;4.43;;
42864;SDS011;28511;42.680;23.252;2023-05-15T11:56:20;7.50;;;4.28;;
42864;SDS011;28511;42.680;23.252;2023-05-15T11:58:50;5.60;;;3.42;;
42864;SDS011;28511;42.680;23.252;2023-05-15T12:01:15;6.40;;;3.67;;
42864;SDS011;28511;42.680;23.252;2023-05-15T12:03:41;5.72;;;4.03;;
42864;SDS011;28511;42.680;23.252;2023-05-15T12:06:06;10.20;;;3.97;;
42864;SDS011;28511;42.680;23.252;2023-05-15T12:08:35;5.07;;;3.00;;
42864;SDS011;28511;42.680;23.252;2023-05-15T12:11:01;6.25;;;3.90;;
42864;SDS011;28511;42.680;23.252;2023-05-15T12:13:27;4.95;;;3.33;;
42864;SDS011;28511;42.680;23.252;2023-05-15T12:15:54;4.40;;;3.03;;
42864;SDS011;28511;42.680;23.252;2023-05-15T12:18:19;9.48;;;5.07;;
42864;SDS011;28511;42.680;23.252;2023-05-15T12:20:44;4.95;;;3.55;;
42864;SDS011;28511;42.680;23.252;2023-05-15T12:23:13;4.28;;;2.92;;
42864;SDS011;28511;42.680;23.252;2023-05-15T12:25:38;16.48;;;2.97;;
42864;SDS011;28511;42.680;23.252;2023-05-15T12:28:04;3.97;;;2.47;;
42864;SDS011;28511;42.680;23.252;2023-05-15T12:30:30;8.73;;;4.35;;
42864;SDS011;28511;42.680;23.252;2023-05-15T12:32:59;8.82;;;4.22;;
42864;SDS011;28511;42.680;23.252;2023-05-15T12:35:26;4.85;;;3.30;;
42864;SDS011;28511;42.680;23.252;2023-05-15T12:37:51;4.57;;;3.00;;
42864;SDS011;28511;42.680;23.252;2023-05-15T12:40:18;4.43;;;2.80;;
42864;SDS011;28511;42.680;23.252;2023-05-15T12:42:44;6.88;;;3.28;;
42864;SDS011;28511;42.680;23.252;2023-05-15T12:45:16;4.80;;;3.42;;
42864;SDS011;28511;42.680;23.252;2023-05-15T12:47:41;3.60;;;3.20;;
42864;SDS011;28511;42.680;23.252;2023-05-15T12:50:25;7.70;;;3.60;;
42864;SDS011;28511;42.680;23.252;2023-05-15T12:52:55;5.20;;;2.70;;
42864;SDS011;28511;42.680;23.252;2023-05-15T12:55:24;4.13;;;2.47;;
42864;SDS011;28511;42.680;23.252;2023-05-15T12:57:51;6.30;;;3.40;;
42864;SDS011;28511;42.680;23.252;2023-05-15T13:00:16;3.72;;;2.50;;
42864;SDS011;28511;42.680;23.252;2023-05-15T13:02:42;5.50;;;2.85;;
42864;SDS011;28511;42.680;23.252;2023-05-15T13:05:08;5.35;;;3.90;;
42864;SDS011;28511;42.680;23.252;2023-05-15T13:07:33;6.57;;;3.50;;
42864;SDS011;28511;42.680;23.252;2023-05-15T13:10:05;6.78;;;3.58;;
42864;SDS011;28511;42.680;23.252;2023-05-15T13:12:38;4.63;;;3.28;;
42864;SDS011;28511;42.680;23.252;2023-05-15T13:15:04;7.05;;;3.28;;
42864;SDS011;28511;42.680;23.252;2023-05-15T13:17:29;5.07;;;3.03;;
42864;SDS011;28511;42.680;23.252;2023-05-15T13:19:55;5.00;;;3.33;;
42864;SDS011;28511;42.680;23.252;2023-05-15T13:22:20;5.33;;;3.10;;
42864;SDS011;28511;42.680;23.252;2023-05-15T13:24:45;6.40;;;4.70;;
42864;SDS011;28511;42.680;23.252;2023-05-15T13:27:10;7.27;;;3.63;;
42864;SDS011;28511;42.680;23.252;2023-05-15T13:29:36;6.10;;;4.07;;
42864;SDS011;28511;42.680;23.252;2023-05-15T13:32:01;7.05;;;3.13;;
42864;SDS011;28511;42.680;23.252;2023-05-15T13:34:26;7.33;;;3.53;;
42864;SDS011;28511;42.680;23.252;2023-05-15T13:36:51;4.87;;;2.57;;
42864;SDS011;28511;42.680;23.252;2023-05-15T13:39:17;3.70;;;2.63;;
42864;SDS011;28511;42.680;23.252;2023-05-15T13:41:43;7.75;;;3.85;;
42864;SDS011;28511;42.680;23.252;2023-05-15T13:44:08;4.63;;;2.90;;
42864;SDS011;28511;42.680;23.252;2023-05-15T13:46:33;5.57;;;3.33;;
42864;SDS011;28511;42.680;23.252;2023-05-15T13:48:58;5.38;;;2.70;;
42864;SDS011;28511;42.680;23.252;2023-05-15T13:51:24;5.47;;;2.85;;
42864;SDS011;28511;42.680;23.252;2023-05-15T13:53:50;4.63;;;2.73;;
42864;SDS011;28511;42.680;23.252;2023-05-15T13:56:15;4.30;;;3.17;;
42864;SDS011;28511;42.680;23.252;2023-05-15T13:58:41;4.82;;;2.72;;
42864;SDS011;28511;42.680;23.252;2023-05-15T14:01:06;6.22;;;2.83;;
42864;SDS011;28511;42.680;23.252;2023-05-15T14:03:31;4.97;;;3.00;;
42864;SDS011;28511;42.680;23.252;2023-05-15T14:05:57;7.00;;;4.10;;
42864;SDS011;28511;42.680;23.252;2023-05-15T14:08:22;2.63;;;2.00;;
42864;SDS011;28511;42.680;23.252;2023-05-15T14:10:47;5.43;;;3.17;;
42864;SDS011;28511;42.680;23.252;2023-05-15T14:13:12;6.37;;;3.37;;
42864;SDS011;28511;42.680;23.252;2023-05-15T14:15:37;3.03;;;2.13;;
42864;SDS011;28511;42.680;23.252;2023-05-15T14:18:03;6.37;;;3.17;;
42864;SDS011;28511;42.680;23.252;2023-05-15T14:20:28;6.77;;;2.70;;
42864;SDS011;28511;42.680;23.252;2023-05-15T14:22:53;5.20;;;2.95;;
42864;SDS011;28511;42.680;23.252;2023-05-15T14:25:18;7.03;;;3.47;;
42864;SDS011;28511;42.680;23.252;2023-05-15T14:27:44;4.65;;;2.75;;
42864;SDS011;28511;42.680;23.252;2023-05-15T14:30:09;3.60;;;2.08;;
42864;SDS011;28511;42.680;23.252;2023-05-15T14:32:35;3.33;;;2.30;;
42864;SDS011;28511;42.680;23.252;2023-05-15T14:35:00;2.03;;;1.88;;
42864;SDS011;28511;42.680;23.252;2023-05-15T14:37:25;5.65;;;2.78;;
42864;SDS011;28511;42.680;23.252;2023-05-15T14:39:52;6.78;;;3.75;;
42864;SDS011;28511;42.680;23.252;2023-05-15T14:42:19;4.30;;;2.97;;
42864;SDS011;28511;42.680;23.252;2023-05-15T14:44:44;5.82;;;3.65;;
42864;SDS011;28511;42.680;23.252;2023-05-15T14:47:10;6.47;;;2.72;;
42864;SDS011;28511;42.680;23.252;2023-05-15T14:49:36;5.05;;;3.70;;
42864;SDS011;28511;42.680;23.252;2023-05-15T14:52:02;6.72;;;2.63;;
42864;SDS011;28511;42.680;23.252;2023-05-15T14:54:28;4.35;;;2.55;;
42864;SDS011;28511;42.680;23.252;2023-05-15T14:56:53;3.30;;;2.28;;
42864;SDS011;28511;42.680;23.252;2023-05-15T14:59:19;4.07;;;2.25;;
42864;SDS011;28511;42.680;23.252;2023-05-15T15:01:44;3.33;;;2.35;;
42864;SDS011;28511;42.680;23.252;2023-05-15T15:04:10;2.10;;;1.75;;